createdAt,value
2018-05-26T00:01:01.805Z,8.07
2018-05-26T00:03:30.093Z,8.50
2018-05-26T00:05:58.349Z,8.33
2018-05-26T00:08:25.862Z,8.97
2018-05-26T00:10:54.112Z,8.10
2018-05-26T00:13:21.641Z,8.07
2018-05-26T00:15:49.128Z,9.30
2018-05-26T00:18:16.644Z,9.33
2018-05-26T00:20:44.127Z,8.73
2018-05-26T00:23:12.426Z,8.57
2018-05-26T00:25:40.685Z,8.00
2018-05-26T00:28:08.208Z,9.17
2018-05-26T00:30:35.705Z,7.70
2018-05-26T00:33:03.203Z,8.40
2018-05-26T00:35:30.705Z,8.13
2018-05-26T00:37:58.961Z,9.10
2018-05-26T00:40:26.477Z,9.47
2018-05-26T00:42:53.953Z,8.03
2018-05-26T00:45:21.440Z,7.50
2018-05-26T00:47:48.942Z,8.30
2018-05-26T00:50:16.415Z,8.13
2018-05-26T00:52:43.917Z,8.47
2018-05-26T00:55:11.394Z,7.83
2018-05-26T00:57:38.902Z,7.87
2018-05-26T01:00:06.393Z,8.30
2018-05-26T01:02:33.910Z,8.40
2018-05-26T01:05:01.402Z,8.53
2018-05-26T01:07:28.882Z,8.20
2018-05-26T01:09:56.391Z,8.27
2018-05-26T01:12:23.896Z,9.10
2018-05-26T01:14:51.403Z,8.40
2018-05-26T01:17:18.914Z,9.93
2018-05-26T01:19:46.397Z,8.60
2018-05-26T01:22:14.641Z,9.33
2018-05-26T01:24:42.137Z,9.03
2018-05-26T01:27:09.625Z,9.23
2018-05-26T01:29:37.901Z,10.00
2018-05-26T01:32:06.154Z,9.77
2018-05-26T01:34:33.671Z,9.80
2018-05-26T01:37:01.954Z,8.20
2018-05-26T01:42:20.060Z,9.37
2018-05-26T01:44:47.548Z,9.57
2018-05-26T01:47:15.074Z,9.97
2018-05-26T01:49:42.558Z,9.10
2018-05-26T01:52:10.842Z,8.80
2018-05-26T01:54:39.098Z,10.13
2018-05-26T01:57:06.625Z,9.70
2018-05-26T01:59:34.113Z,9.90
2018-05-26T02:02:01.762Z,8.80
2018-05-26T02:04:30.035Z,9.20
2018-05-26T02:06:58.285Z,8.87
2018-05-26T02:09:25.819Z,10.63
2018-05-26T02:11:53.298Z,8.70
2018-05-26T02:14:20.819Z,9.70
2018-05-26T02:16:48.305Z,9.23
2018-05-26T02:19:15.842Z,10.00
2018-05-26T02:21:43.337Z,8.80
2018-05-26T02:24:10.867Z,9.27
2018-05-26T02:26:38.353Z,9.50
2018-05-26T02:29:05.877Z,9.70
2018-05-26T02:31:34.155Z,10.13
2018-05-26T02:34:02.507Z,11.83
2018-05-26T02:36:30.015Z,10.33
2018-05-26T02:38:57.512Z,11.00
2018-05-26T02:41:25.041Z,10.43
2018-05-26T02:43:52.537Z,11.40
2018-05-26T02:46:20.829Z,10.50
2018-05-26T02:48:49.085Z,10.47
2018-05-26T02:51:16.618Z,11.80
2018-05-26T02:53:44.118Z,10.70
2018-05-26T02:56:11.641Z,11.33
2018-05-26T02:58:39.908Z,11.10
2018-05-26T03:01:07.442Z,11.13
2018-05-26T03:03:34.951Z,11.47
2018-05-26T03:06:08.188Z,11.83
2018-05-26T03:08:41.380Z,11.80
2018-05-26T03:11:14.622Z,12.10
2018-05-26T03:13:47.870Z,11.80
2018-05-26T03:16:32.190Z,11.93
2018-05-26T03:18:59.696Z,11.50
2018-05-26T03:21:27.223Z,10.73
2018-05-26T03:23:54.721Z,13.07
2018-05-26T03:26:22.262Z,12.60
2018-05-26T03:28:49.765Z,11.90
2018-05-26T03:31:17.266Z,11.20
2018-05-26T03:33:44.797Z,11.93
2018-05-26T03:36:12.281Z,11.70
2018-05-26T03:38:39.826Z,11.60
2018-05-26T03:41:07.317Z,11.90
2018-05-26T03:43:34.845Z,11.70
2018-05-26T03:46:02.365Z,11.57
2018-05-26T03:48:29.894Z,11.47
2018-05-26T03:50:57.423Z,12.83
2018-05-26T03:53:24.954Z,11.37
2018-05-26T03:56:04.401Z,11.57
2018-05-26T03:58:43.848Z,12.13
2018-05-26T04:01:11.351Z,10.90
2018-05-26T04:03:38.866Z,11.00
2018-05-26T04:06:06.448Z,11.03
2018-05-26T04:08:33.904Z,11.27
2018-05-26T04:11:01.404Z,11.47
2018-05-26T04:13:28.934Z,11.27
2018-05-26T04:15:56.424Z,11.00
2018-05-26T04:18:23.955Z,10.10
2018-05-26T04:20:51.461Z,10.93
2018-05-26T04:23:18.991Z,11.37
2018-05-26T04:25:46.477Z,10.50
2018-05-26T04:28:14.059Z,10.80
2018-05-26T04:30:41.522Z,10.47
2018-05-26T04:33:09.022Z,10.27
2018-05-26T04:35:37.327Z,10.90
2018-05-26T04:38:04.819Z,9.43
2018-05-26T04:40:32.369Z,10.13
2018-05-26T04:43:00.679Z,10.57
2018-05-26T04:45:28.200Z,9.90
2018-05-26T04:47:55.698Z,9.90
2018-05-26T04:50:24.001Z,9.90
2018-05-26T04:52:51.508Z,10.43
2018-05-26T04:55:19.022Z,9.80
2018-05-26T04:57:47.276Z,9.70
2018-05-26T05:00:14.806Z,8.83
2018-05-26T05:02:42.293Z,10.27
2018-05-26T05:05:09.785Z,9.77
2018-05-26T05:07:37.428Z,8.83
2018-05-26T05:10:04.919Z,8.90
2018-05-26T05:12:32.442Z,8.93
2018-05-26T05:15:00.697Z,8.60
2018-05-26T05:17:28.230Z,9.13
2018-05-26T05:19:55.716Z,9.27
2018-05-26T05:22:23.525Z,8.27
2018-05-26T05:24:51.103Z,9.23
2018-05-26T05:27:18.584Z,8.10
2018-05-26T05:29:46.085Z,8.77
2018-05-26T05:32:14.369Z,8.37
2018-05-26T05:34:41.891Z,7.70
2018-05-26T05:37:10.179Z,7.83
2018-05-26T05:39:37.671Z,6.47
2018-05-26T05:42:05.174Z,6.57
2018-05-26T05:44:33.453Z,6.90
2018-05-26T05:47:01.721Z,7.03
2018-05-26T05:49:29.226Z,6.47
2018-05-26T05:51:56.709Z,6.47
2018-05-26T05:54:24.215Z,6.37
2018-05-26T05:56:51.709Z,6.37
2018-05-26T05:59:19.201Z,6.50
2018-05-26T06:01:46.694Z,7.20
2018-05-26T06:04:14.188Z,6.37
2018-05-26T06:06:41.709Z,6.20
2018-05-26T06:09:09.977Z,7.23
2018-05-26T06:11:37.486Z,6.40
2018-05-26T06:14:05.747Z,6.50
2018-05-26T06:16:33.270Z,6.37
2018-05-26T06:19:00.766Z,6.10
2018-05-26T06:21:28.269Z,5.93
2018-05-26T06:23:55.765Z,6.40
2018-05-26T06:26:23.320Z,6.97
2018-05-26T06:28:50.807Z,6.10
2018-05-26T06:31:19.061Z,5.57
2018-05-26T06:33:46.590Z,6.43
2018-05-26T06:36:14.101Z,4.60
2018-05-26T06:38:41.622Z,5.33
2018-05-26T06:41:09.121Z,4.93
2018-05-26T06:43:36.637Z,6.17
2018-05-26T06:46:04.131Z,5.57
2018-05-26T06:48:31.653Z,5.77
2018-05-26T06:50:59.149Z,4.63
2018-05-26T06:53:27.453Z,4.27
2018-05-26T06:55:55.711Z,4.80
2018-05-26T06:58:23.236Z,4.23
2018-05-26T07:00:50.756Z,4.37
2018-05-26T07:03:18.245Z,4.40
2018-05-26T07:05:45.785Z,4.60
2018-05-26T07:08:13.297Z,5.60
2018-05-26T07:10:41.589Z,4.70
2018-05-26T07:13:09.834Z,5.87
2018-05-26T07:15:37.350Z,5.67
2018-05-26T07:18:04.853Z,6.50
2018-05-26T07:20:32.364Z,5.57
2018-05-26T07:22:59.843Z,5.60
2018-05-26T07:25:27.360Z,5.40
2018-05-26T07:27:54.864Z,5.40
2018-05-26T07:30:23.136Z,5.63
2018-05-26T07:32:50.628Z,5.37
2018-05-26T07:35:18.909Z,6.00
2018-05-26T07:37:46.422Z,5.00
2018-05-26T07:40:14.681Z,5.77
2018-05-26T07:42:42.202Z,5.07
2018-05-26T07:45:10.462Z,5.20
2018-05-26T07:47:38.755Z,5.30
2018-05-26T07:50:07.019Z,5.50
2018-05-26T07:52:35.329Z,5.17
2018-05-26T07:55:03.613Z,5.00
2018-05-26T07:57:31.982Z,4.63
2018-05-26T07:59:59.491Z,5.00
2018-05-26T08:02:27.026Z,4.90
2018-05-26T08:04:54.595Z,4.30
2018-05-26T08:07:22.085Z,4.50
2018-05-26T08:09:49.607Z,4.90
2018-05-26T08:12:17.094Z,4.97
2018-05-26T08:14:44.628Z,4.60
2018-05-26T08:17:12.182Z,4.33
2018-05-26T08:19:40.481Z,4.50
2018-05-26T08:22:08.738Z,5.13
2018-05-26T08:24:36.255Z,4.10
2018-05-26T08:27:03.760Z,4.43
2018-05-26T08:29:31.644Z,3.50
2018-05-26T08:31:59.193Z,4.30
2018-05-26T08:34:26.710Z,4.20
2018-05-26T08:36:54.199Z,4.30
2018-05-26T08:39:21.726Z,3.93
2018-05-26T08:41:49.254Z,3.83
2018-05-26T08:44:17.510Z,3.90
2018-05-26T08:46:45.040Z,3.90
2018-05-26T08:49:12.546Z,3.37
2018-05-26T08:51:40.066Z,4.30
2018-05-26T08:54:08.310Z,4.40
2018-05-26T08:56:35.824Z,4.00
2018-05-26T08:59:04.073Z,4.37
2018-05-26T09:01:31.597Z,3.97
2018-05-26T09:03:59.083Z,3.70
2018-05-26T09:06:26.609Z,3.60
2018-05-26T09:08:54.106Z,3.80
2018-05-26T09:11:21.686Z,4.20
2018-05-26T09:13:49.150Z,3.67
2018-05-26T09:16:16.641Z,3.50
2018-05-26T09:18:44.195Z,3.63
2018-05-26T09:21:12.428Z,3.53
2018-05-26T09:23:39.961Z,3.80
2018-05-26T09:26:07.486Z,3.73
2018-05-26T09:28:34.998Z,3.50
2018-05-26T09:31:02.495Z,4.10
2018-05-26T09:33:30.021Z,3.70
2018-05-26T09:35:58.273Z,4.20
2018-05-26T09:38:25.793Z,3.50
2018-05-26T09:40:53.265Z,3.33
2018-05-26T09:43:21.564Z,3.17
2018-05-26T09:45:49.047Z,3.60
2018-05-26T09:48:16.560Z,3.70
2018-05-26T09:50:44.078Z,4.10
2018-05-26T09:53:11.565Z,3.33
2018-05-26T09:55:39.118Z,3.80
2018-05-26T09:58:06.596Z,4.00
2018-05-26T10:00:34.113Z,4.00
2018-05-26T10:03:01.601Z,3.43
2018-05-26T10:05:29.127Z,3.20
2018-05-26T10:07:56.628Z,3.97
2018-05-26T10:10:24.150Z,3.90
2018-05-26T10:12:51.652Z,4.10
2018-05-26T10:15:19.214Z,3.67
2018-05-26T10:17:46.705Z,3.50
2018-05-26T10:20:14.213Z,3.50
2018-05-26T10:22:42.499Z,4.00
2018-05-26T10:25:09.998Z,3.37
2018-05-26T10:27:37.734Z,3.20
2018-05-26T10:30:05.334Z,2.77
2018-05-26T10:32:32.805Z,3.07
2018-05-26T10:35:01.066Z,3.13
2018-05-26T10:37:28.597Z,2.90
2018-05-26T10:39:56.075Z,3.00
2018-05-26T10:42:23.598Z,3.00
2018-05-26T10:44:51.856Z,3.97
2018-05-26T10:47:19.374Z,3.30
2018-05-26T10:49:46.858Z,3.20
2018-05-26T10:52:18.359Z,3.27
2018-05-26T10:54:46.669Z,3.83
2018-05-26T10:57:14.187Z,3.00
2018-05-26T10:59:41.751Z,2.90
2018-05-26T11:02:09.257Z,3.57
2018-05-26T11:04:36.783Z,2.60
2018-05-26T11:07:04.282Z,3.10
2018-05-26T11:09:31.799Z,2.70
2018-05-26T11:11:59.301Z,3.20
2018-05-26T11:14:26.825Z,2.93
2018-05-26T11:16:54.310Z,2.80
2018-05-26T11:19:21.828Z,3.00
2018-05-26T11:21:49.320Z,3.60
2018-05-26T11:24:16.954Z,3.27
2018-05-26T11:26:44.395Z,4.50
2018-05-26T11:29:11.877Z,3.67
2018-05-26T11:31:39.401Z,3.30
2018-05-26T11:34:06.881Z,2.90
2018-05-26T11:36:34.402Z,2.90
2018-05-26T11:39:02.711Z,2.60
2018-05-26T11:41:30.229Z,2.90
2018-05-26T11:43:57.709Z,3.10
2018-05-26T11:46:25.226Z,2.93
2018-05-26T11:48:52.705Z,2.60
2018-05-26T11:51:20.257Z,3.23
2018-05-26T11:53:48.509Z,2.67
2018-05-26T11:56:16.009Z,2.43
2018-05-26T11:58:44.302Z,3.03
2018-05-26T12:01:11.831Z,2.70
2018-05-26T12:03:40.132Z,2.53
2018-05-26T12:06:07.617Z,2.27
2018-05-26T12:08:35.133Z,2.40
2018-05-26T12:11:02.748Z,2.07
2018-05-26T12:13:30.277Z,2.50
2018-05-26T12:15:57.765Z,3.00
2018-05-26T12:18:25.283Z,2.40
2018-05-26T12:20:53.547Z,3.23
2018-05-26T12:23:21.082Z,3.03
2018-05-26T12:25:48.585Z,2.73
2018-05-26T12:28:16.070Z,3.30
2018-05-26T12:30:43.578Z,3.07
2018-05-26T12:33:11.861Z,2.47
2018-05-26T12:35:40.145Z,2.93
2018-05-26T12:38:08.406Z,2.20
2018-05-26T12:40:35.945Z,2.83
2018-05-26T12:43:03.431Z,2.70
2018-05-26T12:45:30.963Z,2.70
2018-05-26T12:47:58.445Z,2.60
2018-05-26T12:50:25.995Z,3.10
2018-05-26T12:52:53.481Z,2.20
2018-05-26T12:55:21.001Z,2.77
2018-05-26T12:57:48.498Z,2.57
2018-05-26T13:00:16.778Z,2.63
2018-05-26T13:02:44.273Z,2.53
2018-05-26T13:05:12.575Z,3.00
2018-05-26T13:07:40.063Z,2.83
2018-05-26T13:10:07.583Z,3.70
2018-05-26T13:12:35.107Z,2.70
2018-05-26T13:15:02.592Z,2.63
2018-05-26T13:17:30.120Z,2.60
2018-05-26T13:19:57.876Z,2.90
2018-05-26T13:22:25.396Z,5.30
2018-05-26T13:24:52.877Z,3.10
2018-05-26T13:27:20.415Z,2.80
2018-05-26T13:29:47.894Z,2.90
2018-05-26T13:32:15.415Z,2.60
2018-05-26T13:34:42.906Z,3.23
2018-05-26T13:37:10.425Z,2.43
2018-05-26T13:39:37.909Z,2.50
2018-05-26T13:42:05.430Z,2.60
2018-05-26T13:44:33.677Z,2.60
2018-05-26T13:47:01.267Z,2.80
2018-05-26T13:49:28.752Z,3.03
2018-05-26T13:51:56.233Z,2.43
2018-05-26T13:54:24.518Z,3.00
2018-05-26T13:56:52.002Z,2.80
2018-05-26T13:59:19.555Z,3.00
2018-05-26T14:01:47.875Z,3.27
2018-05-26T14:04:15.406Z,2.93
2018-05-26T14:06:42.893Z,3.27
2018-05-26T14:09:10.426Z,2.97
2018-05-26T14:11:37.909Z,4.70
2018-05-26T14:14:05.426Z,2.93
2018-05-26T14:16:33.715Z,3.27
2018-05-26T14:19:01.200Z,3.90
2018-05-26T14:21:29.035Z,2.57
2018-05-26T14:23:56.557Z,2.70
2018-05-26T14:26:24.040Z,2.67
2018-05-26T14:28:51.554Z,3.83
2018-05-26T14:31:19.105Z,3.37
2018-05-26T14:33:46.626Z,3.17
2018-05-26T14:36:14.145Z,2.93
2018-05-26T14:38:41.640Z,3.27
2018-05-26T14:41:09.136Z,3.00
2018-05-26T14:43:37.441Z,2.70
2018-05-26T14:46:04.922Z,3.23
2018-05-26T14:48:32.421Z,3.43
2018-05-26T14:50:59.906Z,3.30
2018-05-26T14:53:27.397Z,2.53
2018-05-26T14:55:55.673Z,3.10
2018-05-26T14:58:23.234Z,4.03
2018-05-26T15:00:50.737Z,2.97
2018-05-26T15:03:18.989Z,3.10
2018-05-26T15:05:46.506Z,2.90
2018-05-26T15:08:14.753Z,3.70
2018-05-26T15:10:42.265Z,4.67
2018-05-26T15:13:09.841Z,3.30
2018-05-26T15:15:37.293Z,3.40
2018-05-26T15:18:05.541Z,3.23
2018-05-26T15:20:33.054Z,3.10
2018-05-26T15:23:01.306Z,2.97
2018-05-26T15:25:28.781Z,3.00
2018-05-26T15:27:56.297Z,3.30
2018-05-26T15:30:23.785Z,3.20
2018-05-26T15:32:51.329Z,2.83
2018-05-26T15:35:19.591Z,3.47
2018-05-26T15:37:47.112Z,3.87
2018-05-26T15:40:14.593Z,3.20
2018-05-26T15:42:42.112Z,4.97
2018-05-26T15:45:09.595Z,2.83
2018-05-26T15:47:37.110Z,25.27
2018-05-26T15:50:04.601Z,62.10
2018-05-26T15:52:32.131Z,11.30
2018-05-26T15:54:59.629Z,9.97
2018-05-26T15:57:27.146Z,12.50
2018-05-26T15:59:54.691Z,4.33
2018-05-26T16:02:22.177Z,3.37
2018-05-26T16:04:49.661Z,3.10
2018-05-26T16:07:17.989Z,4.27
2018-05-26T16:09:45.490Z,11.00
2018-05-26T16:12:12.969Z,4.43
2018-05-26T16:14:40.502Z,3.70
2018-05-26T16:17:07.985Z,6.30
2018-05-26T16:19:35.509Z,3.93
2018-05-26T16:22:03.006Z,3.93
2018-05-26T16:24:30.546Z,24.23
2018-05-26T16:26:58.025Z,4.50
2018-05-26T16:29:25.887Z,8.67
2018-05-26T16:31:53.379Z,11.73
2018-05-26T16:34:20.923Z,4.97
2018-05-26T16:36:48.414Z,5.17
2018-05-26T16:39:15.950Z,10.23
2018-05-26T16:41:43.456Z,22.73
2018-05-26T16:44:10.992Z,6.10
2018-05-26T16:46:38.494Z,3.93
2018-05-26T16:49:06.026Z,3.27
2018-05-26T16:51:33.506Z,3.70
2018-05-26T16:54:00.981Z,3.47
2018-05-26T16:56:28.502Z,3.63
2018-05-26T16:58:56.752Z,6.10
2018-05-26T17:01:24.266Z,8.73
2018-05-26T17:03:52.518Z,3.97
2018-05-26T17:06:20.036Z,2.60
2018-05-26T17:08:47.517Z,3.53
2018-05-26T17:11:15.035Z,4.13
2018-05-26T17:13:42.532Z,3.30
2018-05-26T17:16:10.819Z,3.20
2018-05-26T17:18:38.297Z,3.37
2018-05-26T17:21:06.585Z,4.03
2018-05-26T17:23:34.833Z,3.50
2018-05-26T17:26:02.368Z,3.30
2018-05-26T17:28:29.853Z,3.47
2018-05-26T17:30:57.456Z,3.90
2018-05-26T17:33:24.854Z,4.23
2018-05-26T17:35:53.168Z,6.90
2018-05-26T17:38:20.657Z,6.90
2018-05-26T17:40:48.190Z,4.20
2018-05-26T17:43:16.434Z,3.60
2018-05-26T17:45:43.925Z,4.20
2018-05-26T17:48:11.441Z,2.67
2018-05-26T17:50:38.924Z,2.93
2018-05-26T17:53:06.442Z,3.57
2018-05-26T17:55:33.929Z,3.53
2018-05-26T17:58:03.073Z,4.00
2018-05-26T18:00:30.565Z,4.50
2018-05-26T18:02:58.091Z,3.83
2018-05-26T18:05:26.358Z,2.97
2018-05-26T18:07:53.876Z,3.00
2018-05-26T18:10:21.369Z,3.03
2018-05-26T18:12:48.907Z,2.80
2018-05-26T18:15:17.164Z,3.27
2018-05-26T18:17:44.674Z,3.37
2018-05-26T18:20:12.249Z,4.27
2018-05-26T18:22:39.780Z,4.10
2018-05-26T18:25:07.278Z,3.30
2018-05-26T18:27:34.831Z,3.57
2018-05-26T18:30:02.324Z,4.00
2018-05-26T18:32:29.859Z,4.90
2018-05-26T18:34:57.338Z,5.43
2018-05-26T18:37:24.828Z,5.00
2018-05-26T18:39:52.345Z,4.00
2018-05-26T18:42:19.849Z,4.30
2018-05-26T18:44:47.389Z,4.30
2018-05-26T18:47:14.872Z,3.27
2018-05-26T18:49:42.394Z,4.10
2018-05-26T18:52:10.654Z,3.97
2018-05-26T18:54:38.165Z,3.87
2018-05-26T18:57:06.286Z,3.80
2018-05-26T18:59:33.822Z,3.73
2018-05-26T19:02:01.318Z,4.20
2018-05-26T19:04:28.837Z,3.77
2018-05-26T19:06:57.098Z,3.33
2018-05-26T19:09:24.618Z,3.93
2018-05-26T19:11:52.106Z,3.27
2018-05-26T19:14:19.821Z,3.40
2018-05-26T19:16:47.310Z,4.03
2018-05-26T19:19:15.150Z,3.10
2018-05-26T19:21:42.670Z,3.27
2018-05-26T19:24:10.925Z,3.43
2018-05-26T19:26:38.493Z,3.70
2018-05-26T19:29:05.994Z,3.63
2018-05-26T19:31:33.513Z,4.20
2018-05-26T19:34:00.994Z,4.17
2018-05-26T19:36:28.549Z,3.33
2018-05-26T19:38:56.034Z,3.70
2018-05-26T19:41:23.554Z,4.30
2018-05-26T19:43:51.033Z,4.90
2018-05-26T19:46:19.377Z,5.37
2018-05-26T19:48:46.864Z,4.43
2018-05-26T19:51:14.390Z,4.80
2018-05-26T19:53:41.876Z,4.87
2018-05-26T19:56:09.682Z,3.90
2018-05-26T19:58:38.550Z,4.00
2018-05-26T20:01:06.094Z,4.70
2018-05-26T20:03:34.346Z,25.73
2018-05-26T20:06:01.867Z,6.43
2018-05-26T20:08:29.378Z,5.33
2018-05-26T20:10:56.874Z,5.83
2018-05-26T20:13:24.433Z,5.53
2018-05-26T20:15:51.918Z,5.23
2018-05-26T20:18:19.449Z,4.17
2018-05-26T20:20:46.984Z,4.50
2018-05-26T20:23:15.277Z,4.20
2018-05-26T20:25:43.543Z,4.13
2018-05-26T20:28:11.050Z,4.27
2018-05-26T20:30:39.345Z,4.73
2018-05-26T20:33:06.864Z,4.63
2018-05-26T20:35:34.347Z,4.33
2018-05-26T20:38:02.345Z,4.20
2018-05-26T20:40:30.623Z,4.37
2018-05-26T20:42:58.147Z,3.97
2018-05-26T20:45:25.649Z,4.97
2018-05-26T20:47:53.181Z,4.43
2018-05-26T20:50:20.677Z,4.67
2018-05-26T20:52:48.206Z,4.57
2018-05-26T20:55:16.469Z,4.53
2018-05-26T20:57:43.972Z,4.33
2018-05-26T21:00:12.381Z,4.60
2018-05-26T21:02:39.890Z,4.83
2018-05-26T21:05:07.436Z,4.67
2018-05-26T21:07:34.930Z,4.97
2018-05-26T21:10:02.451Z,4.73
2018-05-26T21:12:29.949Z,4.83
2018-05-26T21:14:57.534Z,5.50
2018-05-26T21:17:25.037Z,4.80
2018-05-26T21:19:52.561Z,5.13
2018-05-26T21:22:20.050Z,4.90
2018-05-26T21:24:47.571Z,5.40
2018-05-26T21:27:16.357Z,4.83
2018-05-26T21:29:43.871Z,5.30
2018-05-26T21:32:11.391Z,6.90
2018-05-26T21:34:38.970Z,6.10
2018-05-26T21:37:06.469Z,6.10
2018-05-26T21:39:34.022Z,6.10
2018-05-26T21:42:01.504Z,5.63
2018-05-26T21:44:29.753Z,5.60
2018-05-26T21:46:57.275Z,5.27
2018-05-26T21:49:24.761Z,6.00
2018-05-26T21:51:52.354Z,5.90
2018-05-26T21:54:19.877Z,5.20
2018-05-26T21:56:47.366Z,4.87
2018-05-26T21:59:14.854Z,4.90
2018-05-26T22:01:42.365Z,5.20
2018-05-26T22:04:09.853Z,5.47
2018-05-26T22:06:37.421Z,5.20
2018-05-26T22:09:04.989Z,4.60
2018-05-26T22:11:32.506Z,5.07
2018-05-26T22:14:00.001Z,5.23
2018-05-26T22:16:27.545Z,6.30
2018-05-26T22:18:55.065Z,5.40
2018-05-26T22:21:22.550Z,5.70
2018-05-26T22:23:50.068Z,5.70
2018-05-26T22:26:17.559Z,5.40
2018-05-26T22:28:45.078Z,5.80
2018-05-26T22:31:12.589Z,5.43
2018-05-26T22:33:40.123Z,5.20
2018-05-26T22:36:08.374Z,6.33
2018-05-26T22:38:35.919Z,5.57
2018-05-26T22:41:03.407Z,5.50
2018-05-26T22:43:30.922Z,6.03
2018-05-26T22:45:58.407Z,5.37
2018-05-26T22:48:25.943Z,5.50
2018-05-26T22:50:53.442Z,6.23
2018-05-26T22:53:21.688Z,5.30
2018-05-26T22:55:49.216Z,5.67
2018-05-26T22:58:16.704Z,6.40
2018-05-26T23:00:44.217Z,6.33
2018-05-26T23:03:11.707Z,6.57
2018-05-26T23:05:39.229Z,5.60
2018-05-26T23:08:06.732Z,5.73
2018-05-26T23:10:34.253Z,5.93
2018-05-26T23:13:01.749Z,5.67
2018-05-26T23:15:29.261Z,7.80
2018-05-26T23:17:56.761Z,5.03
2018-05-26T23:20:24.300Z,5.77
2018-05-26T23:22:51.793Z,5.50
2018-05-26T23:25:19.309Z,5.77
2018-05-26T23:27:46.797Z,5.13
2018-05-26T23:30:14.313Z,5.53
2018-05-26T23:32:41.841Z,5.80
2018-05-26T23:35:09.326Z,5.87
2018-05-26T23:37:36.865Z,5.80
2018-05-26T23:40:04.390Z,5.60
2018-05-26T23:42:31.887Z,6.83
2018-05-26T23:44:59.398Z,5.60
2018-05-26T23:47:26.941Z,6.10
2018-05-26T23:49:54.456Z,5.47
2018-05-26T23:52:22.802Z,6.40
2018-05-26T23:54:51.023Z,5.80
2018-05-26T23:57:18.594Z,6.57
2018-05-26T23:59:46.082Z,6.67
